Time;durP1;ratioP1;P1;durP2;ratioP2;P2;SDS_P1;SDS_P2;PMS_P1;PMS_P2;Temp;Humidity;BMP_temperature;BMP_pressure;BME280_temperature;BME280_humidity;BME280_pressure;Samples;Min_cycle;Max_cycle;Signal;HPM_P1;HPM_P2
2023/01/19 00:01:18;;;;;;;;;;;1.10;99.90;;;;;;5016838;28;20020;-70
2023/01/19 00:03:43;;;;;;;;;;;1.20;99.90;;;;;;5033862;28;20338;-71
2023/01/19 00:06:09;;;;;;;;;;;1.20;99.90;;;;;;5034720;28;19924;-71
2023/01/19 00:08:34;;;;;;;;;;;1.30;99.90;;;;;;5034227;28;19909;-71
2023/01/19 00:11:00;;;;;;;;;;;1.30;99.90;;;;;;5010751;28;19913;-70
2023/01/19 00:13:26;;;;;;;;;;;1.30;99.90;;;;;;4996495;28;20384;-70
2023/01/19 00:15:52;;;;;;;;;;;1.40;99.90;;;;;;5013930;28;19910;-70
2023/01/19 00:18:17;;;;;;;;;;;1.40;99.90;;;;;;5014100;28;20377;-70
2023/01/19 00:20:46;;;;;;;;;;;1.40;99.90;;;;;;5033374;28;19948;-71
2023/01/19 00:23:12;;;;;;;;;;;1.50;99.90;;;;;;5032748;28;19924;-70
2023/01/19 00:25:44;;;;;;;;;;;1.50;99.90;;;;;;5033096;28;19916;-71
2023/01/19 00:28:13;;;;;;;;;;;1.50;99.90;;;;;;5033143;28;19924;-70
2023/01/19 00:30:40;;;;;;;;;;;1.40;99.90;;;;;;5015529;28;19948;-70
2023/01/19 00:33:05;;;;;;;;;;;1.40;99.90;;;;;;5015262;28;19914;-71
2023/01/19 00:35:31;;;;;;;;;;;1.40;99.90;;;;;;5033005;28;19916;-71
2023/01/19 00:37:56;;;;;;;;;;;1.40;99.90;;;;;;5032754;28;19913;-71
2023/01/19 00:40:22;;;;;;;;;;;1.30;99.90;;;;;;5036762;28;19913;-71
2023/01/19 00:42:47;;;;;;;;;;;1.30;99.90;;;;;;5036727;28;19909;-70
2023/01/19 00:45:17;;;;;;;;;;;1.40;99.90;;;;;;5018890;28;19909;-70
2023/01/19 00:47:43;;;;;;;;;;;1.40;99.90;;;;;;5036942;28;19916;-71
2023/01/19 00:50:12;;;;;;;;;;;1.30;99.90;;;;;;5036599;28;19913;-70
2023/01/19 00:52:39;;;;;;;;;;;1.40;99.90;;;;;;5024192;28;20401;-71
2023/01/19 00:55:05;;;;;;;;;;;1.40;99.90;;;;;;5016560;28;19910;-71
2023/01/19 00:57:30;;;;;;;;;;;1.40;99.90;;;;;;5012230;28;19964;-70
2023/01/19 00:59:56;;;;;;;;;;;1.40;99.90;;;;;;5036157;28;19909;-71
2023/01/19 01:02:21;;;;;;;;;;;1.50;99.90;;;;;;5035983;28;19941;-71
2023/01/19 01:04:47;;;;;;;;;;;1.50;99.90;;;;;;5018570;28;20277;-70
2023/01/19 01:07:12;;;;;;;;;;;1.50;99.90;;;;;;5018151;28;19955;-70
2023/01/19 01:09:38;;;;;;;;;;;1.50;99.90;;;;;;5036063;28;19916;-70
2023/01/19 01:12:03;;;;;;;;;;;1.60;99.90;;;;;;5035881;28;19995;-70
2023/01/19 01:14:29;;;;;;;;;;;1.60;99.90;;;;;;5035854;28;19913;-71
2023/01/19 01:16:54;;;;;;;;;;;1.60;99.90;;;;;;5018290;28;20382;-70
2023/01/19 01:19:20;;;;;;;;;;;1.50;99.90;;;;;;5018270;28;19932;-69
2023/01/19 01:21:45;;;;;;;;;;;1.50;99.90;;;;;;5017636;28;20277;-70
2023/01/19 01:24:11;;;;;;;;;;;1.60;99.90;;;;;;5035686;28;19909;-71
2023/01/19 01:26:36;;;;;;;;;;;1.50;99.90;;;;;;5035889;28;20007;-70
2023/01/19 01:29:04;;;;;;;;;;;1.50;99.90;;;;;;5018326;28;19943;-71
2023/01/19 01:31:29;;;;;;;;;;;1.50;99.90;;;;;;5033272;28;19968;-70
2023/01/19 01:33:55;;;;;;;;;;;1.40;99.90;;;;;;5033016;28;19921;-70
2023/01/19 01:36:20;;;;;;;;;;;1.50;99.90;;;;;;5034975;28;19909;-71
2023/01/19 01:38:46;;;;;;;;;;;1.50;99.90;;;;;;5016908;28;19948;-70
2023/01/19 01:41:12;;;;;;;;;;;1.40;99.90;;;;;;5018251;28;19913;-70
2023/01/19 01:43:48;;;;;;;;;;;1.40;99.90;;;;;;5035489;28;19923;-70
2023/01/19 01:46:14;;;;;;;;;;;1.50;99.90;;;;;;5017731;28;19960;-70
2023/01/19 01:48:42;;;;;;;;;;;1.50;99.90;;;;;;5017810;28;19996;-71
2023/01/19 01:51:24;;;;;;;;;;;1.50;99.90;;;;;;5035126;28;20357;-70
2023/01/19 01:54:08;;;;;;;;;;;1.50;99.90;;;;;;5030047;28;19917;-71
2023/01/19 01:56:37;;;;;;;;;;;1.60;99.90;;;;;;5035986;28;20320;-70
2023/01/19 01:59:05;;;;;;;;;;;1.70;99.90;;;;;;5021881;28;19917;-70
2023/01/19 02:04:15;;;;;;;;;;;1.80;99.90;;;;;;5034909;28;20031;-70
2023/01/19 02:14:54;;;;;;;;;;;1.80;99.90;;;;;;5097782;28;19969;-69
2023/01/19 02:17:19;;;;;;;;;;;1.60;99.90;;;;;;5093879;28;20233;-70
2023/01/19 02:19:45;;;;;;;;;;;1.60;99.90;;;;;;5093525;28;19908;-70
2023/01/19 02:22:25;;;;;;;;;;;1.60;99.90;;;;;;5079735;28;19908;-70
2023/01/19 02:24:51;;;;;;;;;;;1.60;99.90;;;;;;5073918;28;20277;-70
2023/01/19 02:27:17;;;;;;;;;;;1.60;99.90;;;;;;5073832;28;19913;-71
2023/01/19 02:29:43;;;;;;;;;;;1.70;99.90;;;;;;5072689;28;20434;-71
2023/01/19 02:32:09;;;;;;;;;;;1.70;99.90;;;;;;5072282;28;19916;-70
2023/01/19 02:34:34;;;;;;;;;;;1.70;99.90;;;;;;5072837;28;20288;-71
2023/01/19 02:37:05;;;;;;;;;;;1.70;99.90;;;;;;5073635;28;20292;-71
2023/01/19 02:39:30;;;;;;;;;;;1.70;99.90;;;;;;5074123;28;19909;-71
2023/01/19 02:42:00;;;;;;;;;;;1.80;99.90;;;;;;5072393;28;19908;-70
2023/01/19 02:44:26;;;;;;;;;;;1.80;99.90;;;;;;5073034;28;19999;-71
2023/01/19 02:46:52;;;;;;;;;;;1.70;99.90;;;;;;5074173;28;20003;-71
2023/01/19 02:49:18;;;;;;;;;;;1.60;99.90;;;;;;5076015;28;19909;-70
2023/01/19 02:51:43;;;;;;;;;;;1.60;99.90;;;;;;5080543;28;19919;-71
2023/01/19 02:54:23;;;;;;;;;;;1.70;99.90;;;;;;5071498;28;19920;-70
2023/01/19 02:56:54;;;;;;;;;;;1.70;99.90;;;;;;5059874;28;20371;-70
2023/01/19 02:59:25;;;;;;;;;;;1.70;99.90;;;;;;5074154;28;19909;-71
2023/01/19 03:01:57;;;;;;;;;;;1.70;99.90;;;;;;5073475;28;19916;-71
2023/01/19 03:04:25;;;;;;;;;;;1.70;99.90;;;;;;5073395;28;19909;-71
2023/01/19 03:07:08;;;;;;;;;;;1.80;99.90;;;;;;5072000;28;19913;-71
2023/01/19 03:09:42;;;;;;;;;;;1.80;99.90;;;;;;5073050;28;19958;-70
2023/01/19 03:12:18;;;;;;;;;;;1.70;99.90;;;;;;5071841;28;19916;-71
2023/01/19 03:14:46;;;;;;;;;;;1.60;99.90;;;;;;5073968;28;20054;-71
2023/01/19 03:17:13;;;;;;;;;;;1.60;99.90;;;;;;5073437;28;20229;-70
2023/01/19 03:19:40;;;;;;;;;;;1.60;99.90;;;;;;5073059;28;19918;-70
2023/01/19 03:22:08;;;;;;;;;;;1.60;99.90;;;;;;5073800;28;20356;-70
2023/01/19 03:24:36;;;;;;;;;;;1.60;99.90;;;;;;5073388;28;19962;-70
2023/01/19 03:27:05;;;;;;;;;;;1.60;99.90;;;;;;5071979;28;19919;-69
2023/01/19 03:29:33;;;;;;;;;;;1.50;99.90;;;;;;5073461;28;20400;-69
2023/01/19 03:32:01;;;;;;;;;;;1.60;99.90;;;;;;5073435;28;19977;-70
2023/01/19 03:34:28;;;;;;;;;;;1.70;99.90;;;;;;5071965;28;19919;-70
2023/01/19 03:36:56;;;;;;;;;;;1.60;99.90;;;;;;5073412;28;19908;-70
2023/01/19 03:39:23;;;;;;;;;;;1.70;99.90;;;;;;5073269;28;20380;-70
2023/01/19 03:41:50;;;;;;;;;;;1.60;99.90;;;;;;5072988;28;20326;-71
2023/01/19 03:44:16;;;;;;;;;;;1.60;99.90;;;;;;5071733;28;19909;-70
2023/01/19 03:46:43;;;;;;;;;;;1.70;99.90;;;;;;5073272;28;20279;-70
2023/01/19 03:49:08;;;;;;;;;;;1.70;99.90;;;;;;5073502;28;20429;-71
2023/01/19 03:51:35;;;;;;;;;;;1.70;99.90;;;;;;5073369;28;19917;-70
2023/01/19 03:54:00;;;;;;;;;;;1.70;99.90;;;;;;5071830;28;19912;-70
2023/01/19 03:56:26;;;;;;;;;;;1.70;99.90;;;;;;5071849;28;19909;-71
2023/01/19 03:58:51;;;;;;;;;;;1.70;99.90;;;;;;5071613;28;19908;-70
2023/01/19 04:01:19;;;;;;;;;;;1.70;99.90;;;;;;5072752;28;19916;-70
2023/01/19 04:03:46;;;;;;;;;;;1.80;99.90;;;;;;5055296;28;19945;-70
2023/01/19 04:06:11;;;;;;;;;;;1.80;99.90;;;;;;5073142;28;20379;-70
2023/01/19 04:08:37;;;;;;;;;;;1.80;99.90;;;;;;5073449;28;19913;-69
2023/01/19 04:11:02;;;;;;;;;;;1.80;99.90;;;;;;5073116;28;19941;-70
2023/01/19 04:13:28;;;;;;;;;;;1.80;99.90;;;;;;5074916;28;19999;-71
2023/01/19 04:15:57;;;;;;;;;;;1.80;99.90;;;;;;5078694;28;19935;-71
2023/01/19 04:18:23;;;;;;;;;;;1.80;99.90;;;;;;5078113;28;20272;-72
2023/01/19 04:20:48;;;;;;;;;;;1.80;99.90;;;;;;5095566;28;19920;-71
2023/01/19 04:23:14;;;;;;;;;;;1.80;99.90;;;;;;5079695;28;19912;-71
2023/01/19 04:25:39;;;;;;;;;;;1.80;99.90;;;;;;5079223;28;19965;-71
2023/01/19 04:28:05;;;;;;;;;;;1.80;99.90;;;;;;5078838;28;19916;-71
2023/01/19 04:30:30;;;;;;;;;;;1.90;99.90;;;;;;5075457;28;19995;-71
2023/01/19 04:32:57;;;;;;;;;;;2.00;99.90;;;;;;5075390;28;20426;-70
2023/01/19 04:35:22;;;;;;;;;;;1.90;99.90;;;;;;5075212;28;19915;-70
2023/01/19 04:37:48;;;;;;;;;;;1.80;99.90;;;;;;5075104;28;19909;-71
2023/01/19 04:40:13;;;;;;;;;;;1.70;99.90;;;;;;5075925;28;19912;-70
2023/01/19 04:42:43;;;;;;;;;;;1.70;99.90;;;;;;5074647;28;19971;-70
2023/01/19 04:45:09;;;;;;;;;;;1.80;99.90;;;;;;5076161;28;20016;-70
2023/01/19 04:47:35;;;;;;;;;;;1.80;99.90;;;;;;5076420;28;19956;-71
2023/01/19 04:50:00;;;;;;;;;;;1.70;99.90;;;;;;5076729;28;19909;-70
2023/01/19 04:52:33;;;;;;;;;;;1.80;99.90;;;;;;5075052;28;19913;-71
2023/01/19 04:54:59;;;;;;;;;;;1.80;99.90;;;;;;5075070;28;19912;-70
2023/01/19 04:57:25;;;;;;;;;;;1.70;99.90;;;;;;5075569;28;19951;-69
2023/01/19 04:59:50;;;;;;;;;;;1.70;99.90;;;;;;5075071;28;19909;-70
2023/01/19 05:02:16;;;;;;;;;;;1.70;99.90;;;;;;5091535;28;19927;-71
2023/01/19 05:04:42;;;;;;;;;;;1.70;99.90;;;;;;5076017;28;20022;-70
2023/01/19 05:07:07;;;;;;;;;;;1.90;99.90;;;;;;5076133;28;19913;-71
2023/01/19 05:09:33;;;;;;;;;;;1.90;99.90;;;;;;5075114;28;19909;-70
2023/01/19 05:11:58;;;;;;;;;;;1.90;99.90;;;;;;5075911;28;19931;-70
2023/01/19 05:14:24;;;;;;;;;;;1.80;99.90;;;;;;5075862;28;19996;-70
2023/01/19 05:16:49;;;;;;;;;;;1.80;99.90;;;;;;5074459;28;20051;-70
2023/01/19 05:19:15;;;;;;;;;;;1.80;99.90;;;;;;5075632;28;19908;-71
2023/01/19 05:21:40;;;;;;;;;;;1.80;99.90;;;;;;5074389;28;19912;-71
2023/01/19 05:24:06;;;;;;;;;;;1.80;99.90;;;;;;5073375;28;19913;-70
2023/01/19 05:26:32;;;;;;;;;;;1.90;99.90;;;;;;5074489;28;20383;-70
2023/01/19 05:28:57;;;;;;;;;;;1.80;99.90;;;;;;5074106;28;19920;-70
2023/01/19 05:31:23;;;;;;;;;;;1.80;99.90;;;;;;5074437;28;19988;-71
2023/01/19 05:33:48;;;;;;;;;;;1.70;99.90;;;;;;5074868;28;19920;-71
2023/01/19 05:36:14;;;;;;;;;;;1.70;99.90;;;;;;5068809;28;19916;-70
2023/01/19 05:38:39;;;;;;;;;;;1.60;99.90;;;;;;5059782;28;20023;-70
2023/01/19 05:41:05;;;;;;;;;;;1.60;99.90;;;;;;5062585;28;20289;-73
2023/01/19 05:43:30;;;;;;;;;;;1.70;99.90;;;;;;5057144;28;20058;-72
2023/01/19 05:45:56;;;;;;;;;;;1.60;99.90;;;;;;5066725;28;19928;-72
2023/01/19 05:48:21;;;;;;;;;;;1.70;99.90;;;;;;5071503;28;19920;-72
2023/01/19 05:50:48;;;;;;;;;;;1.60;99.90;;;;;;5057094;28;19908;-71
2023/01/19 05:53:14;;;;;;;;;;;1.50;99.90;;;;;;5068337;28;19991;-68
2023/01/19 05:55:39;;;;;;;;;;;1.50;99.90;;;;;;5073042;28;19919;-71
2023/01/19 05:58:05;;;;;;;;;;;1.50;99.90;;;;;;5074770;28;19912;-71
2023/01/19 06:00:30;;;;;;;;;;;1.30;99.90;;;;;;5075207;28;20003;-70
2023/01/19 06:02:56;;;;;;;;;;;1.40;99.90;;;;;;5074737;28;19909;-71
2023/01/19 06:05:21;;;;;;;;;;;1.30;99.90;;;;;;5060928;28;19955;-72
2023/01/19 06:07:47;;;;;;;;;;;1.40;99.90;;;;;;5064046;28;19909;-69
2023/01/19 06:10:12;;;;;;;;;;;1.40;99.90;;;;;;5062469;28;19917;-71
2023/01/19 06:12:38;;;;;;;;;;;1.40;99.90;;;;;;5063474;28;19924;-70
2023/01/19 06:15:04;;;;;;;;;;;1.40;99.90;;;;;;5062515;28;19957;-72
2023/01/19 06:17:33;;;;;;;;;;;1.40;99.90;;;;;;5062008;28;19914;-70
2023/01/19 06:19:58;;;;;;;;;;;1.40;99.90;;;;;;5055207;28;19909;-71
2023/01/19 06:22:24;;;;;;;;;;;1.40;99.90;;;;;;5067420;28;19965;-72
2023/01/19 06:24:49;;;;;;;;;;;1.40;99.90;;;;;;5071885;28;19927;-71
2023/01/19 06:27:15;;;;;;;;;;;1.40;99.90;;;;;;5075716;28;19912;-71
2023/01/19 06:29:40;;;;;;;;;;;1.40;99.90;;;;;;5074564;28;20314;-70
2023/01/19 06:32:06;;;;;;;;;;;1.40;99.90;;;;;;5073562;28;20365;-70
2023/01/19 06:34:31;;;;;;;;;;;1.50;99.90;;;;;;5071470;28;20007;-71
2023/01/19 06:36:57;;;;;;;;;;;1.50;99.90;;;;;;5070945;28;19966;-68
2023/01/19 06:39:22;;;;;;;;;;;1.60;99.90;;;;;;5074185;28;19916;-68
2023/01/19 06:41:48;;;;;;;;;;;1.70;99.90;;;;;;5072739;28;19912;-68
2023/01/19 06:44:13;;;;;;;;;;;1.60;99.90;;;;;;5072705;28;20269;-68
2023/01/19 06:46:39;;;;;;;;;;;1.70;99.90;;;;;;5071775;28;19912;-67
2023/01/19 06:49:04;;;;;;;;;;;1.80;99.90;;;;;;5073870;28;19980;-67
2023/01/19 06:51:30;;;;;;;;;;;1.80;99.90;;;;;;5070528;28;19915;-66
2023/01/19 06:53:56;;;;;;;;;;;1.80;99.90;;;;;;5073135;28;20344;-68
2023/01/19 06:56:21;;;;;;;;;;;1.90;99.90;;;;;;5073358;28;19908;-68
2023/01/19 06:58:47;;;;;;;;;;;1.90;99.90;;;;;;5074477;28;19915;-68
2023/01/19 07:01:12;;;;;;;;;;;1.90;99.90;;;;;;5074467;28;20055;-67
2023/01/19 07:03:38;;;;;;;;;;;1.90;99.90;;;;;;5072860;28;19908;-68
2023/01/19 07:06:05;;;;;;;;;;;1.90;99.90;;;;;;5058528;28;20383;-67
2023/01/19 07:08:31;;;;;;;;;;;1.90;99.90;;;;;;5058615;28;19908;-68
2023/01/19 07:11:01;;;;;;;;;;;1.90;99.90;;;;;;5053441;28;19999;-68
2023/01/19 07:13:27;;;;;;;;;;;1.90;99.90;;;;;;5054386;28;19913;-68
2023/01/19 07:15:52;;;;;;;;;;;1.90;99.90;;;;;;5054625;28;20058;-67
2023/01/19 07:18:18;;;;;;;;;;;2.00;99.90;;;;;;5053531;28;19912;-68
2023/01/19 07:20:45;;;;;;;;;;;2.00;99.90;;;;;;5053504;28;20007;-69
2023/01/19 07:23:11;;;;;;;;;;;2.00;99.90;;;;;;5069995;28;20258;-67
2023/01/19 07:25:37;;;;;;;;;;;2.00;99.90;;;;;;5073873;28;19930;-68
2023/01/19 07:28:02;;;;;;;;;;;1.90;99.90;;;;;;5075310;28;19909;-67
2023/01/19 07:30:28;;;;;;;;;;;1.90;99.90;;;;;;5075346;28;19915;-67
2023/01/19 07:32:54;;;;;;;;;;;2.00;99.90;;;;;;5075048;28;20006;-67
2023/01/19 07:35:20;;;;;;;;;;;2.00;99.90;;;;;;5074643;28;19931;-68
2023/01/19 07:37:46;;;;;;;;;;;2.00;99.90;;;;;;5089319;28;19908;-67
2023/01/19 07:40:11;;;;;;;;;;;1.90;99.90;;;;;;5073326;28;19938;-67
2023/01/19 07:42:37;;;;;;;;;;;1.90;99.90;;;;;;5073013;28;19954;-67
2023/01/19 07:45:03;;;;;;;;;;;1.90;99.90;;;;;;5073138;28;19999;-67
2023/01/19 07:47:28;;;;;;;;;;;2.00;99.90;;;;;;5074134;28;19908;-67
2023/01/19 07:49:54;;;;;;;;;;;2.00;99.90;;;;;;5077047;28;20459;-67
2023/01/19 07:52:21;;;;;;;;;;;2.10;99.90;;;;;;5076810;28;20317;-67
2023/01/19 07:54:49;;;;;;;;;;;2.10;99.90;;;;;;5092735;28;19908;-69
2023/01/19 07:57:15;;;;;;;;;;;2.10;99.90;;;;;;5077222;28;19912;-67
2023/01/19 07:59:41;;;;;;;;;;;2.10;99.90;;;;;;5076798;28;19915;-67
2023/01/19 08:02:08;;;;;;;;;;;2.20;99.90;;;;;;5075446;28;19908;-67
2023/01/19 08:04:33;;;;;;;;;;;2.20;99.90;;;;;;5076685;28;20361;-66
2023/01/19 08:06:59;;;;;;;;;;;2.20;99.90;;;;;;5075481;28;19916;-67
2023/01/19 08:09:24;;;;;;;;;;;2.20;99.90;;;;;;5092426;28;19923;-67
2023/01/19 08:11:49;;;;;;;;;;;2.20;99.90;;;;;;5075751;28;19927;-67
2023/01/19 08:14:15;;;;;;;;;;;2.30;99.90;;;;;;5076341;28;19912;-67
2023/01/19 08:16:40;;;;;;;;;;;2.30;99.90;;;;;;5077120;28;19908;-68
2023/01/19 08:19:06;;;;;;;;;;;2.30;99.90;;;;;;5075414;28;19970;-68
2023/01/19 08:21:32;;;;;;;;;;;2.40;99.90;;;;;;5076620;28;19909;-66
2023/01/19 08:23:57;;;;;;;;;;;2.50;99.90;;;;;;5076775;28;20428;-66
2023/01/19 08:26:30;;;;;;;;;;;2.50;99.90;;;;;;5077034;28;19908;-68
2023/01/19 08:28:57;;;;;;;;;;;2.60;99.90;;;;;;5076980;28;20359;-66
2023/01/19 08:31:23;;;;;;;;;;;2.60;99.90;;;;;;5077008;28;19908;-68
2023/01/19 08:33:48;;;;;;;;;;;2.60;99.90;;;;;;5075654;28;19916;-67
2023/01/19 08:36:14;;;;;;;;;;;2.50;99.90;;;;;;5076567;28;19919;-67
2023/01/19 08:38:42;;;;;;;;;;;2.50;99.90;;;;;;5075536;28;19908;-68
2023/01/19 08:41:08;;;;;;;;;;;2.60;99.90;;;;;;5075547;28;19912;-67
2023/01/19 08:43:33;;;;;;;;;;;2.60;99.90;;;;;;5072561;28;19916;-68
2023/01/19 08:45:59;;;;;;;;;;;2.60;99.90;;;;;;5056472;28;19932;-67
2023/01/19 08:48:24;;;;;;;;;;;2.70;99.90;;;;;;5056740;28;19964;-67
2023/01/19 08:50:50;;;;;;;;;;;2.70;99.90;;;;;;5056388;28;19916;-67
2023/01/19 08:53:16;;;;;;;;;;;2.70;99.90;;;;;;5071928;28;20027;-68
2023/01/19 08:55:41;;;;;;;;;;;2.70;99.90;;;;;;5075613;28;19954;-67
2023/01/19 08:58:07;;;;;;;;;;;2.70;99.90;;;;;;5075991;28;19954;-68
2023/01/19 09:00:33;;;;;;;;;;;2.80;99.90;;;;;;5071292;28;19915;-68
2023/01/19 09:03:01;;;;;;;;;;;2.80;99.90;;;;;;5056027;28;19909;-68
2023/01/19 09:05:27;;;;;;;;;;;2.80;99.90;;;;;;5055754;28;19999;-68
2023/01/19 09:07:53;;;;;;;;;;;2.70;99.90;;;;;;5055574;28;19940;-67
2023/01/19 09:10:18;;;;;;;;;;;2.80;99.90;;;;;;5071690;28;20011;-68
2023/01/19 09:12:45;;;;;;;;;;;2.90;99.90;;;;;;5055494;28;20424;-67
2023/01/19 09:15:12;;;;;;;;;;;3.10;99.90;;;;;;5055502;28;20357;-68
2023/01/19 09:17:38;;;;;;;;;;;3.20;99.90;;;;;;5056846;28;19916;-68
2023/01/19 09:20:04;;;;;;;;;;;3.20;99.90;;;;;;5055227;28;20227;-67
2023/01/19 09:22:31;;;;;;;;;;;3.20;99.90;;;;;;5055405;28;19909;-68
2023/01/19 09:24:57;;;;;;;;;;;3.20;99.90;;;;;;5068477;28;19948;-67
2023/01/19 09:27:23;;;;;;;;;;;3.20;99.90;;;;;;5074242;28;19962;-67
2023/01/19 09:29:51;;;;;;;;;;;3.20;99.90;;;;;;5075231;28;19912;-67
2023/01/19 09:32:18;;;;;;;;;;;3.20;99.90;;;;;;5075418;28;19908;-68
2023/01/19 09:34:43;;;;;;;;;;;3.30;99.90;;;;;;5075323;28;20400;-67
2023/01/19 09:37:09;;;;;;;;;;;3.20;99.90;;;;;;5075548;28;19908;-66
2023/01/19 09:39:34;;;;;;;;;;;3.20;99.90;;;;;;5075247;28;19978;-67
2023/01/19 09:42:04;;;;;;;;;;;3.30;99.90;;;;;;5073776;28;19916;-66
2023/01/19 09:44:32;;;;;;;;;;;3.40;99.90;;;;;;5073595;28;20066;-66
2023/01/19 09:46:59;;;;;;;;;;;3.60;99.90;;;;;;5075151;28;19955;-66
2023/01/19 09:49:29;;;;;;;;;;;3.70;99.90;;;;;;5075403;28;19915;-67
2023/01/19 09:51:54;;;;;;;;;;;3.70;99.90;;;;;;5073567;28;19912;-68
2023/01/19 09:54:28;;;;;;;;;;;3.80;99.90;;;;;;5074607;28;19919;-68
2023/01/19 09:56:54;;;;;;;;;;;3.70;99.90;;;;;;5074806;28;19962;-67
2023/01/19 09:59:24;;;;;;;;;;;3.60;99.90;;;;;;5074785;28;19992;-68
2023/01/19 10:02:08;;;;;;;;;;;3.50;99.90;;;;;;5073222;28;19915;-68
2023/01/19 10:04:50;;;;;;;;;;;3.30;99.90;;;;;;5074741;28;19915;-67
2023/01/19 10:07:15;;;;;;;;;;;3.20;99.90;;;;;;5074644;28;19951;-67
2023/01/19 10:09:41;;;;;;;;;;;3.10;99.90;;;;;;5073324;28;19908;-67
2023/01/19 10:12:10;;;;;;;;;;;3.00;99.90;;;;;;5074407;28;19927;-67
2023/01/19 10:15:00;;;;;;;;;;;3.00;99.90;;;;;;5091104;27;19913;-67
2023/01/19 10:17:41;;;;;;;;;;;3.00;99.90;;;;;;5123851;28;20287;-68
2023/01/19 10:20:12;;;;;;;;;;;3.10;99.90;;;;;;5090804;28;19912;-68
2023/01/19 10:22:38;;;;;;;;;;;3.10;99.90;;;;;;5091040;28;19909;-67
2023/01/19 10:25:12;;;;;;;;;;;3.00;99.90;;;;;;5089776;28;19942;-66
2023/01/19 10:27:37;;;;;;;;;;;3.00;99.90;;;;;;5072291;28;19908;-67
2023/01/19 10:30:05;;;;;;;;;;;3.00;99.90;;;;;;5070877;28;19912;-69
2023/01/19 10:32:34;;;;;;;;;;;2.90;99.90;;;;;;5069342;28;19909;-67
2023/01/19 10:35:03;;;;;;;;;;;2.90;99.90;;;;;;5069526;28;20286;-69
2023/01/19 10:37:31;;;;;;;;;;;2.70;99.90;;;;;;5070396;28;19955;-67
2023/01/19 10:40:18;;;;;;;;;;;2.70;99.90;;;;;;5070546;28;19996;-67
2023/01/19 10:42:44;;;;;;;;;;;2.70;99.90;;;;;;5070693;28;19917;-67
2023/01/19 10:45:20;;;;;;;;;;;2.70;99.90;;;;;;5070819;28;20388;-67
2023/01/19 10:47:46;;;;;;;;;;;2.70;99.90;;;;;;5069161;28;19908;-67
2023/01/19 10:50:22;;;;;;;;;;;2.70;99.90;;;;;;5070690;28;19915;-67
2023/01/19 10:52:48;;;;;;;;;;;2.70;99.90;;;;;;5070196;28;19912;-68
2023/01/19 10:55:23;;;;;;;;;;;2.80;99.90;;;;;;5069315;28;19912;-66
2023/01/19 10:57:50;;;;;;;;;;;2.80;99.90;;;;;;5069168;28;20046;-66
2023/01/19 11:00:33;;;;;;;;;;;2.80;99.90;;;;;;5070509;28;19908;-65
2023/01/19 11:02:58;;;;;;;;;;;2.80;99.90;;;;;;5068680;28;19908;-67
2023/01/19 11:05:25;;;;;;;;;;;2.80;99.90;;;;;;5070425;28;19909;-67
2023/01/19 11:07:51;;;;;;;;;;;2.80;99.90;;;;;;5069838;28;20062;-68
2023/01/19 11:10:16;;;;;;;;;;;2.80;99.90;;;;;;5070163;28;19952;-67
2023/01/19 11:12:42;;;;;;;;;;;2.80;99.90;;;;;;5071904;28;19974;-66
2023/01/19 11:15:13;;;;;;;;;;;2.80;99.90;;;;;;5089985;28;20308;-66
2023/01/19 11:17:41;;;;;;;;;;;2.80;99.90;;;;;;5089755;28;19951;-67
2023/01/19 11:20:16;;;;;;;;;;;2.90;99.90;;;;;;5088929;28;19915;-67
2023/01/19 11:22:42;;;;;;;;;;;3.00;99.90;;;;;;5089451;28;19908;-67
2023/01/19 11:25:19;;;;;;;;;;;3.00;99.90;;;;;;5080898;28;19955;-67
2023/01/19 11:27:47;;;;;;;;;;;3.10;99.90;;;;;;5076224;28;19916;-67
2023/01/19 11:30:16;;;;;;;;;;;3.10;99.90;;;;;;5076010;28;19930;-67
2023/01/19 11:32:41;;;;;;;;;;;3.10;99.90;;;;;;5076166;28;19977;-67
2023/01/19 11:35:26;;;;;;;;;;;3.10;99.90;;;;;;5076102;28;20361;-67
2023/01/19 11:38:03;;;;;;;;;;;3.10;99.90;;;;;;5076217;28;19916;-66
2023/01/19 11:40:29;;;;;;;;;;;3.20;99.90;;;;;;5075862;28;19908;-67
2023/01/19 11:42:54;;;;;;;;;;;3.30;99.90;;;;;;5076688;28;20379;-66
2023/01/19 11:45:20;;;;;;;;;;;3.30;99.90;;;;;;5076507;28;19915;-68
2023/01/19 11:47:51;;;;;;;;;;;3.50;99.90;;;;;;5076060;28;20226;-67
2023/01/19 11:50:26;;;;;;;;;;;3.50;99.90;;;;;;5075181;28;20377;-67
2023/01/19 11:52:55;;;;;;;;;;;3.50;99.90;;;;;;5075588;28;19992;-67
2023/01/19 11:55:29;;;;;;;;;;;3.40;99.90;;;;;;5075656;28;19909;-67
2023/01/19 11:57:54;;;;;;;;;;;3.30;99.90;;;;;;5076480;28;19909;-68
2023/01/19 12:00:25;;;;;;;;;;;3.40;99.90;;;;;;5074167;28;19909;-68
2023/01/19 12:03:00;;;;;;;;;;;3.40;99.90;;;;;;5074138;28;19940;-67
2023/01/19 12:05:32;;;;;;;;;;;3.40;99.90;;;;;;5075787;28;19991;-68
2023/01/19 12:07:59;;;;;;;;;;;3.60;99.90;;;;;;5075187;28;20328;-67
2023/01/19 12:10:27;;;;;;;;;;;3.60;99.90;;;;;;5073753;28;20368;-67
2023/01/19 12:12:52;;;;;;;;;;;3.60;99.90;;;;;;5073494;28;19917;-68
2023/01/19 12:15:36;;;;;;;;;;;3.60;99.90;;;;;;5074060;28;20325;-68
2023/01/19 12:18:04;;;;;;;;;;;3.70;99.90;;;;;;5073328;28;19909;-67
2023/01/19 12:20:32;;;;;;;;;;;3.60;99.90;;;;;;5074951;28;19909;-68
2023/01/19 12:22:57;;;;;;;;;;;3.60;99.90;;;;;;5075494;28;19931;-67
2023/01/19 12:25:46;;;;;;;;;;;3.50;99.90;;;;;;5075230;28;19913;-67
2023/01/19 12:28:13;;;;;;;;;;;3.50;99.90;;;;;;5065681;28;19912;-67
2023/01/19 12:30:38;;;;;;;;;;;3.50;99.90;;;;;;5075148;28;19915;-67
2023/01/19 12:33:22;;;;;;;;;;;3.50;99.90;;;;;;5074767;28;20384;-68
2023/01/19 12:36:01;;;;;;;;;;;3.40;99.90;;;;;;5074714;28;19908;-67
2023/01/19 12:38:32;;;;;;;;;;;3.40;99.90;;;;;;5075078;28;19908;-67
2023/01/19 12:41:16;;;;;;;;;;;3.50;99.90;;;;;;5074450;28;19908;-67
2023/01/19 12:43:42;;;;;;;;;;;3.40;99.90;;;;;;5074721;28;19958;-69
2023/01/19 12:46:17;;;;;;;;;;;3.40;99.90;;;;;;5073113;28;19908;-67
2023/01/19 12:48:43;;;;;;;;;;;3.40;99.90;;;;;;5074058;28;19916;-68
2023/01/19 12:51:20;;;;;;;;;;;3.50;99.90;;;;;;5074293;28;19908;-67
2023/01/19 12:53:50;;;;;;;;;;;3.50;99.90;;;;;;5074550;28;19920;-67
2023/01/19 12:56:16;;;;;;;;;;;3.60;99.90;;;;;;5090201;28;19969;-67
2023/01/19 12:58:46;;;;;;;;;;;3.60;99.90;;;;;;5095375;28;20357;-67
2023/01/19 13:01:13;;;;;;;;;;;3.50;99.90;;;;;;5096214;28;19908;-68
2023/01/19 13:03:57;;;;;;;;;;;3.60;99.90;;;;;;5095891;28;19908;-68
2023/01/19 13:06:55;;;;;;;;;;;3.50;99.90;;;;;;5095775;28;19950;-67
2023/01/19 13:09:26;;;;;;;;;;;3.50;99.90;;;;;;5094543;28;20357;-66
2023/01/19 13:12:10;;;;;;;;;;;3.50;99.90;;;;;;5094176;28;19908;-68
2023/01/19 13:14:36;;;;;;;;;;;3.50;99.90;;;;;;5094263;28;20426;-69
2023/01/19 13:17:03;;;;;;;;;;;3.50;99.90;;;;;;5092981;28;19912;-69
2023/01/19 13:19:36;;;;;;;;;;;3.50;99.90;;;;;;5086698;28;19909;-67
2023/01/19 13:22:20;;;;;;;;;;;3.50;99.90;;;;;;5074069;28;20291;-68
2023/01/19 13:25:06;;;;;;;;;;;3.60;99.90;;;;;;5072901;28;19909;-68
2023/01/19 13:27:33;;;;;;;;;;;3.50;99.90;;;;;;5073804;28;20006;-68
2023/01/19 13:29:59;;;;;;;;;;;3.50;99.90;;;;;;5072388;28;20260;-67
2023/01/19 13:32:24;;;;;;;;;;;3.40;99.90;;;;;;5073188;28;19916;-68
2023/01/19 13:34:52;;;;;;;;;;;3.40;99.90;;;;;;5073620;28;20372;-68
2023/01/19 13:37:18;;;;;;;;;;;3.50;99.90;;;;;;5073021;28;19908;-69
2023/01/19 13:39:45;;;;;;;;;;;3.60;99.90;;;;;;5072488;28;20395;-67
2023/01/19 13:42:15;;;;;;;;;;;3.70;99.90;;;;;;5072484;28;19924;-67
2023/01/19 13:44:45;;;;;;;;;;;3.80;99.90;;;;;;5073989;28;20019;-67
2023/01/19 13:47:17;;;;;;;;;;;3.80;99.90;;;;;;5076831;28;19915;-68
2023/01/19 13:49:45;;;;;;;;;;;3.80;99.90;;;;;;5074051;28;19916;-67
2023/01/19 13:52:18;;;;;;;;;;;3.80;99.90;;;;;;5073410;28;19916;-68
2023/01/19 13:54:53;;;;;;;;;;;3.90;99.90;;;;;;5088949;28;20360;-68
2023/01/19 13:57:25;;;;;;;;;;;3.80;99.90;;;;;;5078865;28;19909;-67
2023/01/19 14:00:00;;;;;;;;;;;3.90;99.90;;;;;;5092292;28;19908;-67
2023/01/19 14:02:25;;;;;;;;;;;3.90;99.90;;;;;;5077264;28;20254;-67
2023/01/19 14:04:50;;;;;;;;;;;3.90;99.90;;;;;;5073924;28;19962;-67
2023/01/19 14:07:24;;;;;;;;;;;4.00;99.90;;;;;;5073375;28;20426;-68
2023/01/19 14:10:03;;;;;;;;;;;4.00;99.90;;;;;;5074555;28;19931;-68
2023/01/19 14:12:28;;;;;;;;;;;4.00;99.90;;;;;;5074507;28;20242;-67
2023/01/19 14:14:54;;;;;;;;;;;4.00;99.90;;;;;;5073697;28;19918;-67
2023/01/19 14:17:27;;;;;;;;;;;4.00;99.90;;;;;;5074476;28;19913;-68
2023/01/19 14:19:54;;;;;;;;;;;4.10;99.90;;;;;;5073206;28;19909;-68
2023/01/19 14:22:19;;;;;;;;;;;4.10;99.90;;;;;;5079478;28;20021;-68
2023/01/19 14:24:45;;;;;;;;;;;4.00;99.90;;;;;;5093424;28;20008;-68
2023/01/19 14:27:19;;;;;;;;;;;3.90;99.90;;;;;;5092863;28;19930;-69
2023/01/19 14:29:46;;;;;;;;;;;3.80;99.90;;;;;;5087791;28;19912;-68
2023/01/19 14:32:13;;;;;;;;;;;3.70;99.90;;;;;;5080354;28;20389;-68
2023/01/19 14:34:41;;;;;;;;;;;3.70;99.90;;;;;;5077825;28;19996;-68
2023/01/19 14:37:27;;;;;;;;;;;3.70;99.90;;;;;;5073287;28;20373;-68
2023/01/19 14:40:13;;;;;;;;;;;3.70;99.90;;;;;;5073807;28;20380;-68
2023/01/19 14:42:41;;;;;;;;;;;3.60;99.90;;;;;;5071587;28;19909;-69
2023/01/19 14:45:15;;;;;;;;;;;3.70;99.90;;;;;;5076038;28;19909;-68
2023/01/19 14:47:41;;;;;;;;;;;3.70;99.90;;;;;;5074235;28;19912;-68